Time,TemperatureF,DewpointF,PressureIn,WindDirection,WindDirectionDegrees,WindSpeedMPH,WindSpeedGustMPH,Humidity,HourlyPrecipIn,Conditions,Clouds,dailyrainin,SoftwareType,DateUTC
2013-05-20 00:12:00,36.0,30.0,-100.00,North,-999,0.0,0.0,78,-99.99,,,-99.99,,2013-05-20 07:12:00,
2013-05-20 00:32:00,35.0,30.0,-100.00,North,-999,0.0,0.0,81,-99.99,,,-99.99,,2013-05-20 07:32:00,
2013-05-20 00:42:00,35.0,30.0,-100.00,North,-999,0.0,0.0,81,-99.99,,,-99.99,,2013-05-20 07:42:00,
2013-05-20 00:52:00,35.0,30.0,-100.00,North,-999,0.0,0.0,82,-99.99,,,-99.99,,2013-05-20 07:52:00,
2013-05-20 01:11:00,35.0,31.0,-100.00,North,-999,0.0,0.0,84,-99.99,,,-99.99,,2013-05-20 08:11:00,
2013-05-20 01:21:00,35.0,31.0,-100.00,North,-999,0.0,0.0,85,-99.99,,,-99.99,,2013-05-20 08:21:00,
2013-05-20 01:41:00,34.0,31.0,-100.00,North,-999,0.0,0.0,87,-99.99,,,-99.99,,2013-05-20 08:41:00,
2013-05-20 01:51:00,34.0,31.0,-100.00,North,-999,0.0,0.0,88,-99.99,,,-99.99,,2013-05-20 08:51:00,
2013-05-20 02:12:00,34.0,31.0,-100.00,North,-999,0.0,0.0,89,-99.99,,,-99.99,,2013-05-20 09:12:00,
2013-05-20 02:21:00,33.0,31.0,-100.00,North,-999,0.0,0.0,90,-99.99,,,-99.99,,2013-05-20 09:21:00,
2013-05-20 02:43:00,32.0,30.0,-100.00,North,-999,0.0,0.0,91,-99.99,,,-99.99,,2013-05-20 09:43:00,
2013-05-20 02:52:00,32.0,30.0,-100.00,North,-999,0.0,0.0,91,-99.99,,,-99.99,,2013-05-20 09:52:00,
2013-05-20 03:12:00,32.0,29.0,-100.00,North,-999,0.0,0.0,92,-99.99,,,-99.99,,2013-05-20 10:12:00,
2013-05-20 03:22:00,31.0,29.0,-100.00,North,-999,0.0,0.0,92,-99.99,,,-99.99,,2013-05-20 10:22:00,
2013-05-20 03:42:00,31.0,29.0,-100.00,North,-999,0.0,0.0,92,-99.99,,,-99.99,,2013-05-20 10:42:00,
2013-05-20 03:52:00,30.0,28.0,-100.00,North,-999,0.0,0.0,92,-99.99,,,-99.99,,2013-05-20 10:52:00,
2013-05-20 04:00:00,29.0,28.0,-100.00,North,-999,0.0,0.0,94,-99.99,,,-99.99,,2013-05-20 11:00:00,
2013-05-20 04:02:00,30.0,28.0,-100.00,North,-999,0.0,0.0,92,-99.99,,,-99.99,,2013-05-20 11:02:00,
2013-05-20 04:12:00,30.0,28.0,-100.00,North,-999,0.0,0.0,92,-99.99,,,-99.99,,2013-05-20 11:12:00,
2013-05-20 04:21:00,30.0,28.0,-100.00,North,-999,0.0,0.0,93,-99.99,,,-99.99,,2013-05-20 11:21:00,
2013-05-20 04:41:00,29.0,28.0,-100.00,North,-999,0.0,0.0,93,-99.99,,,-99.99,,2013-05-20 11:41:00,
2013-05-20 04:52:00,29.0,28.0,-100.00,North,-999,0.0,0.0,94,-99.99,,,-99.99,,2013-05-20 11:52:00,
2013-05-20 05:11:00,29.0,28.0,-100.00,North,-999,0.0,0.0,94,-99.99,,,-99.99,,2013-05-20 12:11:00,
2013-05-20 05:21:00,29.0,28.0,-100.00,North,-999,0.0,0.0,95,-99.99,,,-99.99,,2013-05-20 12:21:00,
2013-05-20 05:41:00,29.0,28.0,-100.00,North,-999,0.0,0.0,95,-99.99,,,-99.99,,2013-05-20 12:41:00,
2013-05-20 05:51:00,29.0,28.0,-100.00,North,-999,0.0,0.0,95,-99.99,,,-99.99,,2013-05-20 12:51:00,
2013-05-20 06:11:00,29.0,28.0,-100.00,North,-999,0.0,0.0,96,-99.99,,,-99.99,,2013-05-20 13:11:00,
2013-05-20 06:22:00,29.0,28.0,-100.00,North,-999,0.0,0.0,96,-99.99,,,-99.99,,2013-05-20 13:22:00,
2013-05-20 06:52:00,29.0,28.0,-100.00,North,-999,0.0,0.0,96,-99.99,,,-99.99,,2013-05-20 13:52:00,
2013-05-20 07:11:00,32.0,31.0,-100.00,North,-999,0.0,0.0,96,-99.99,,,-99.99,,2013-05-20 14:11:00,
2013-05-20 07:22:00,35.0,33.0,-100.00,North,-999,0.0,0.0,92,-99.99,,,-99.99,,2013-05-20 14:22:00,
2013-05-20 07:41:00,38.0,34.0,-100.00,North,-999,0.0,0.0,85,-99.99,,,-99.99,,2013-05-20 14:41:00,
2013-05-20 07:52:00,40.0,34.0,-100.00,North,-999,0.0,0.0,79,-99.99,,,-99.99,,2013-05-20 14:52:00,
2013-05-20 08:11:00,41.0,35.0,-100.00,North,-999,0.0,0.0,77,-99.99,,,-99.99,,2013-05-20 15:11:00,
2013-05-20 08:21:00,42.0,35.0,-100.00,North,-999,0.0,0.0,75,-99.99,,,-99.99,,2013-05-20 15:21:00,
2013-05-20 08:42:00,44.0,35.0,-100.00,North,-999,0.0,0.0,71,-99.99,,,-99.99,,2013-05-20 15:42:00,
2013-05-20 08:53:00,45.0,35.0,-100.00,North,-999,0.0,0.0,68,-99.99,,,-99.99,,2013-05-20 15:53:00,
2013-05-20 09:12:00,46.0,35.0,-100.00,North,-999,0.0,0.0,64,-99.99,,,-99.99,,2013-05-20 16:12:00,
2013-05-20 09:22:00,47.0,33.0,-100.00,North,-999,0.0,0.0,58,-99.99,,,-99.99,,2013-05-20 16:22:00,
2013-05-20 09:42:00,48.0,34.0,-100.00,North,-999,0.0,0.0,57,-99.99,,,-99.99,,2013-05-20 16:42:00,
2013-05-20 09:44:00,55.0,33.0,-100.00,North,-999,0.0,0.0,43,-99.99,,,-99.99,,2013-05-20 16:44:00,
2013-05-20 09:52:00,49.0,34.0,-100.00,North,-999,0.0,0.0,55,-99.99,,,-99.99,,2013-05-20 16:52:00,
2013-05-20 10:12:00,52.0,34.0,-100.00,North,-999,0.0,0.0,50,-99.99,,,-99.99,,2013-05-20 17:12:00,
2013-05-20 10:22:00,54.0,33.0,-100.00,North,-999,0.0,0.0,46,-99.99,,,-99.99,,2013-05-20 17:22:00,
2013-05-20 10:53:00,57.0,33.0,-100.00,North,-999,0.0,0.0,39,-99.99,,,-99.99,,2013-05-20 17:53:00,
2013-05-20 11:12:00,58.0,31.0,-100.00,North,-999,0.0,0.0,35,-99.99,,,-99.99,,2013-05-20 18:12:00,
2013-05-20 11:23:00,59.0,31.0,-100.00,North,-999,0.0,0.0,35,-99.99,,,-99.99,,2013-05-20 18:23:00,
2013-05-20 11:41:00,60.0,32.0,-100.00,North,-999,0.0,0.0,35,-99.99,,,-99.99,,2013-05-20 18:41:00,
2013-05-20 11:55:00,61.0,34.0,-100.00,North,-999,0.0,0.0,35,-99.99,,,-99.99,,2013-05-20 18:55:00,
2013-05-20 12:11:00,62.0,34.0,-100.00,North,-999,0.0,0.0,34,-99.99,,,-99.99,,2013-05-20 19:11:00,
2013-05-20 12:21:00,63.0,34.0,-100.00,North,-999,0.0,0.0,34,-99.99,,,-99.99,,2013-05-20 19:21:00,
2013-05-20 12:52:00,64.0,35.0,-100.00,North,-999,0.0,0.0,33,-99.99,,,-99.99,,2013-05-20 19:52:00,
2013-05-20 13:12:00,66.0,35.0,-100.00,North,-999,0.0,0.0,32,-99.99,,,-99.99,,2013-05-20 20:12:00,
2013-05-20 13:21:00,67.0,34.0,-100.00,North,-999,0.0,0.0,30,-99.99,,,-99.99,,2013-05-20 20:21:00,
2013-05-20 13:42:00,68.0,34.0,-100.00,North,-999,0.0,0.0,28,-99.99,,,-99.99,,2013-05-20 20:42:00,
2013-05-20 13:51:00,68.0,31.0,-100.00,North,-999,0.0,0.0,25,-99.99,,,-99.99,,2013-05-20 20:51:00,
2013-05-20 14:11:00,69.0,32.0,-100.00,North,-999,0.0,0.0,25,-99.99,,,-99.99,,2013-05-20 21:11:00,
2013-05-20 14:21:00,70.0,32.0,-100.00,North,-999,0.0,0.0,24,-99.99,,,-99.99,,2013-05-20 21:21:00,
2013-05-20 14:53:00,71.0,30.0,-100.00,North,-999,0.0,0.0,22,-99.99,,,-99.99,,2013-05-20 21:53:00,
2013-05-20 15:12:00,72.0,30.0,-100.00,North,-999,0.0,0.0,21,-99.99,,,-99.99,,2013-05-20 22:12:00,
2013-05-20 15:23:00,72.0,29.0,-100.00,North,-999,0.0,0.0,20,-99.99,,,-99.99,,2013-05-20 22:23:00,
2013-05-20 15:42:00,72.0,27.0,-100.00,North,-999,0.0,0.0,19,-99.99,,,-99.99,,2013-05-20 22:42:00,
2013-05-20 15:52:00,72.0,28.0,-100.00,North,-999,0.0,0.0,19,-99.99,,,-99.99,,2013-05-20 22:52:00,
2013-05-20 16:12:00,72.0,28.0,-100.00,North,-999,0.0,0.0,19,-99.99,,,-99.99,,2013-05-20 23:12:00,
2013-05-20 16:22:00,73.0,28.0,-100.00,North,-999,0.0,0.0,19,-99.99,,,-99.99,,2013-05-20 23:22:00,
2013-05-20 17:30:00,72.0,27.0,-100.00,North,-999,0.0,0.0,19,-99.99,,,-99.99,,2013-05-21 00:30:00,
2013-05-20 18:00:00,73.0,28.0,-100.00,North,-999,0.0,0.0,19,-99.99,,,-99.99,,2013-05-21 01:00:00,
2013-05-20 18:11:00,73.0,27.0,-100.00,North,-999,0.0,0.0,18,-99.99,,,-99.99,,2013-05-21 01:11:00,
2013-05-20 18:21:00,72.0,27.0,-100.00,North,-999,0.0,0.0,19,-99.99,,,-99.99,,2013-05-21 01:21:00,
2013-05-20 18:42:00,72.0,27.0,-100.00,North,-999,0.0,0.0,19,-99.99,,,-99.99,,2013-05-21 01:42:00,
2013-05-20 18:53:00,73.0,28.0,-100.00,North,-999,0.0,0.0,19,-99.99,,,-99.99,,2013-05-21 01:53:00,
2013-05-20 19:11:00,72.0,28.0,-100.00,North,-999,0.0,0.0,19,-99.99,,,-99.99,,2013-05-21 02:11:00,
2013-05-20 19:21:00,70.0,26.0,-100.00,North,-999,0.0,0.0,19,-99.99,,,-99.99,,2013-05-21 02:21:00,
2013-05-20 19:30:00,64.0,33.0,-100.00,North,-999,0.0,0.0,32,-99.99,,,-99.99,,2013-05-21 02:30:00,
2013-05-20 19:41:00,68.0,28.0,-100.00,North,-999,0.0,0.0,22,-99.99,,,-99.99,,2013-05-21 02:41:00,
2013-05-20 19:52:00,67.0,31.0,-100.00,North,-999,0.0,0.0,26,-99.99,,,-99.99,,2013-05-21 02:52:00,
2013-05-20 20:11:00,65.0,32.0,-100.00,North,-999,0.0,0.0,29,-99.99,,,-99.99,,2013-05-21 03:11:00,
2013-05-20 20:21:00,64.0,33.0,-100.00,North,-999,0.0,0.0,32,-99.99,,,-99.99,,2013-05-21 03:21:00,
2013-05-20 20:43:00,62.0,34.0,-100.00,North,-999,0.0,0.0,35,-99.99,,,-99.99,,2013-05-21 03:43:00,
2013-05-20 20:53:00,61.0,35.0,-100.00,North,-999,0.0,0.0,38,-99.99,,,-99.99,,2013-05-21 03:53:00,
2013-05-20 21:13:00,60.0,36.0,-100.00,North,-999,0.0,0.0,41,-99.99,,,-99.99,,2013-05-21 04:13:00,
2013-05-20 21:23:00,59.0,37.0,-100.00,North,-999,0.0,0.0,44,-99.99,,,-99.99,,2013-05-21 04:23:00,
2013-05-20 21:33:00,57.0,37.0,-100.00,North,-999,0.0,0.0,47,-99.99,,,-99.99,,2013-05-21 04:33:00,
2013-05-20 21:42:00,57.0,37.0,-100.00,North,-999,0.0,0.0,47,-99.99,,,-99.99,,2013-05-21 04:42:00,
2013-05-20 21:52:00,56.0,38.0,-100.00,North,-999,0.0,0.0,49,-99.99,,,-99.99,,2013-05-21 04:52:00,
2013-05-20 22:12:00,55.0,38.0,-100.00,North,-999,0.0,0.0,51,-99.99,,,-99.99,,2013-05-21 05:12:00,
2013-05-20 22:21:00,54.0,38.0,-100.00,North,-999,0.0,0.0,54,-99.99,,,-99.99,,2013-05-21 05:21:00,
2013-05-20 22:32:00,54.0,39.0,-100.00,North,-999,0.0,0.0,56,-99.99,,,-99.99,,2013-05-21 05:32:00,
2013-05-20 22:42:00,54.0,39.0,-100.00,North,-999,0.0,0.0,56,-99.99,,,-99.99,,2013-05-21 05:42:00,
2013-05-20 22:51:00,54.0,38.0,-100.00,North,-999,0.0,0.0,56,-99.99,,,-99.99,,2013-05-21 05:51:00,
2013-05-20 23:00:00,51.0,38.0,-100.00,North,-999,0.0,0.0,60,-99.99,,,-99.99,,2013-05-21 06:00:00,
2013-05-20 23:12:00,53.0,38.0,-100.00,North,-999,0.0,0.0,57,-99.99,,,-99.99,,2013-05-21 06:12:00,
2013-05-20 23:21:00,53.0,38.0,-100.00,North,-999,0.0,0.0,57,-99.99,,,-99.99,,2013-05-21 06:21:00,
2013-05-20 23:32:00,52.0,38.0,-100.00,North,-999,0.0,0.0,58,-99.99,,,-99.99,,2013-05-21 06:32:00,
2013-05-20 23:41:00,52.0,38.0,-100.00,North,-999,0.0,0.0,58,-99.99,,,-99.99,,2013-05-21 06:41:00,
2013-05-20 23:52:00,51.0,38.0,-100.00,North,-999,0.0,0.0,60,-99.99,,,-99.99,,2013-05-21 06:52:00,